createdAt,value
2022-10-13T00:02:40.366Z,47.90
2022-10-13T00:09:21.884Z,52.10
2022-10-13T00:16:03.693Z,48.80
2022-10-13T00:22:45.325Z,54.40
2022-10-13T00:29:26.961Z,50.50
2022-10-13T00:36:08.501Z,49.00
2022-10-13T00:42:52.912Z,50.40
2022-10-13T00:49:34.484Z,59.70
2022-10-13T00:56:16.304Z,50.00
2022-10-13T01:02:58.051Z,50.30
2022-10-13T01:09:39.403Z,50.50
2022-10-13T01:16:39.449Z,62.00
2022-10-13T01:23:26.879Z,53.90
2022-10-13T01:30:11.524Z,45.00
2022-10-13T01:36:57.156Z,44.20
2022-10-13T01:57:09.296Z,35.90
2022-10-13T02:11:01.935Z,45.30
2022-10-13T02:17:43.159Z,43.30
2022-10-13T02:24:24.715Z,39.60
2022-10-13T02:31:06.340Z,43.70
2022-10-13T02:37:48.106Z,37.30
2022-10-13T02:44:29.916Z,40.50
2022-10-13T02:51:11.523Z,41.20
2022-10-13T02:57:52.944Z,36.70
2022-10-13T03:04:34.464Z,39.00
2022-10-13T03:11:15.802Z,46.70
2022-10-13T03:17:57.214Z,43.00
2022-10-13T03:24:38.932Z,45.30
2022-10-13T03:31:20.453Z,45.50
2022-10-13T03:37:49.667Z,47.60
2022-10-13T03:44:31.180Z,41.20
2022-10-13T03:51:13.044Z,39.50
2022-10-13T03:57:54.809Z,46.30
2022-10-13T04:04:17.814Z,39.80
2022-10-13T04:10:59.232Z,37.90
2022-10-13T04:17:40.544Z,43.30
2022-10-13T04:24:22.492Z,40.20
2022-10-13T04:31:03.964Z,39.40
2022-10-13T04:37:45.455Z,41.20
2022-10-13T04:44:29.806Z,36.70
2022-10-13T04:51:11.294Z,39.00
2022-10-13T04:57:52.850Z,41.00
2022-10-13T05:04:34.547Z,38.60
2022-10-13T05:10:55.648Z,41.90
2022-10-13T05:17:36.942Z,44.40
2022-10-13T05:23:38.892Z,42.70
2022-10-13T05:29:06.916Z,38.60
2022-10-13T05:35:27.961Z,44.80
2022-10-13T05:41:08.997Z,42.30
2022-10-13T05:46:31.511Z,43.20
2022-10-13T05:57:49.739Z,46.10
2022-10-13T06:03:22.414Z,47.70
2022-10-13T06:08:45.693Z,45.00
2022-10-13T06:14:07.838Z,39.40
2022-10-13T06:19:37.044Z,41.50
2022-10-13T06:25:02.328Z,38.90
2022-10-13T06:30:27.740Z,39.40
2022-10-13T06:36:09.118Z,42.90
2022-10-13T06:42:34.749Z,37.10
2022-10-13T06:48:22.759Z,45.80
2022-10-13T06:53:43.860Z,37.30
2022-10-13T06:59:04.833Z,35.80
2022-10-13T07:04:27.499Z,37.20
2022-10-13T07:09:52.083Z,31.90
2022-10-13T07:15:14.279Z,32.90
2022-10-13T07:20:37.226Z,29.00
2022-10-13T07:26:01.393Z,33.60
2022-10-13T07:31:27.044Z,28.90
2022-10-13T07:36:48.868Z,32.10
2022-10-13T07:42:11.239Z,32.20
2022-10-13T07:47:33.052Z,32.00
2022-10-13T07:52:53.703Z,28.80
2022-10-13T07:58:46.915Z,24.30
2022-10-13T08:04:31.003Z,30.10
2022-10-13T08:09:55.575Z,28.10
2022-10-13T08:15:18.934Z,29.30
2022-10-13T08:20:44.354Z,30.50
2022-10-13T08:26:12.267Z,29.50
2022-10-13T08:32:14.182Z,29.60
2022-10-13T08:38:45.963Z,31.00
2022-10-13T08:45:15.783Z,26.40
2022-10-13T08:50:46.030Z,28.20
2022-10-13T08:56:37.476Z,28.00
2022-10-13T09:02:11.467Z,24.30
2022-10-13T09:07:39.383Z,24.00
2022-10-13T09:13:01.969Z,26.20
2022-10-13T09:18:38.359Z,27.10
2022-10-13T09:24:35.401Z,22.40
2022-10-13T09:30:37.671Z,24.90
2022-10-13T09:36:41.154Z,22.20
2022-10-13T09:42:45.974Z,24.20
2022-10-13T09:49:00.643Z,24.10
2022-10-13T10:01:01.850Z,18.60
2022-10-13T10:07:42.873Z,17.70
2022-10-13T10:13:13.304Z,20.30
2022-10-13T10:18:45.788Z,16.60
2022-10-13T10:24:30.489Z,16.00
2022-10-13T10:30:06.498Z,16.30
2022-10-13T10:35:54.612Z,14.30
2022-10-13T10:42:09.338Z,12.70
2022-10-13T10:48:02.893Z,15.40
2022-10-13T10:54:43.899Z,12.80
2022-10-13T11:13:56.257Z,11.50
2022-10-13T11:20:06.865Z,11.50
2022-10-13T11:39:16.319Z,12.40
2022-10-13T11:52:30.043Z,11.30
2022-10-13T12:06:39.730Z,13.00
2022-10-13T12:13:35.618Z,15.20
2022-10-13T12:20:31.970Z,14.50
2022-10-13T12:35:06.553Z,13.60
2022-10-13T12:41:44.290Z,12.60
2022-10-13T13:03:21.156Z,13.80
2022-10-13T13:59:06.187Z,19.90
2022-10-13T14:25:34.233Z,18.40
2022-10-13T15:47:46.701Z,28.90
2022-10-13T16:19:42.825Z,32.60
2022-10-13T16:26:27.246Z,32.60
2022-10-13T16:32:10.046Z,34.10
2022-10-13T16:37:31.864Z,37.80
2022-10-13T16:42:54.113Z,47.50
2022-10-13T16:49:18.201Z,48.50
2022-10-13T16:56:02.914Z,44.60
2022-10-13T17:02:06.049Z,48.30
2022-10-13T17:08:29.763Z,47.10
2022-10-13T17:14:35.805Z,49.70
2022-10-13T17:26:47.288Z,52.60
2022-10-13T17:33:09.395Z,49.10
2022-10-13T17:39:51.845Z,44.70
2022-10-13T17:45:41.159Z,58.70
2022-10-13T17:51:45.581Z,45.80
2022-10-13T17:58:07.733Z,51.10
2022-10-13T18:04:38.106Z,43.80
2022-10-13T18:11:08.710Z,40.50
2022-10-13T18:17:20.831Z,34.40
2022-10-13T18:23:27.420Z,36.30
2022-10-13T18:29:23.682Z,37.80
2022-10-13T18:35:23.392Z,35.80
2022-10-13T18:41:15.040Z,43.90
2022-10-13T18:47:26.854Z,33.90
2022-10-13T18:53:11.765Z,37.50
2022-10-13T18:58:39.397Z,33.20
2022-10-13T19:04:42.527Z,32.70
2022-10-13T19:10:30.664Z,33.60
2022-10-13T19:16:06.354Z,28.50
2022-10-13T19:22:03.772Z,32.70
2022-10-13T19:27:30.947Z,33.30
2022-10-13T19:32:54.475Z,33.80
2022-10-13T19:38:18.146Z,31.10
2022-10-13T19:43:40.360Z,31.40
2022-10-13T19:49:03.684Z,32.40
2022-10-13T19:54:30.183Z,33.90
2022-10-13T19:59:55.237Z,33.10
2022-10-13T20:05:24.643Z,31.10
2022-10-13T20:10:48.785Z,31.30
2022-10-13T20:16:17.365Z,32.00
2022-10-13T20:21:40.130Z,32.30
2022-10-13T20:27:06.492Z,32.00
2022-10-13T20:32:29.263Z,32.70
2022-10-13T20:37:57.453Z,28.50
2022-10-13T20:43:35.142Z,30.20
2022-10-13T20:49:40.159Z,30.70
2022-10-13T20:55:09.546Z,28.10
2022-10-13T21:00:33.403Z,30.90
2022-10-13T21:06:00.276Z,30.10
2022-10-13T21:11:39.861Z,31.40
2022-10-13T21:17:11.024Z,32.00
2022-10-13T21:22:59.931Z,30.70
2022-10-13T21:28:34.042Z,31.60
2022-10-13T21:34:08.109Z,30.00
2022-10-13T21:39:35.593Z,34.00
2022-10-13T21:45:03.525Z,32.00
2022-10-13T21:56:50.770Z,27.40
2022-10-13T22:02:57.701Z,28.00
2022-10-13T22:08:37.695Z,30.60
2022-10-13T22:14:06.947Z,32.00
2022-10-13T22:24:55.539Z,33.70
2022-10-13T22:30:19.743Z,33.40
2022-10-13T22:35:51.198Z,34.80
2022-10-13T22:41:18.316Z,38.10
2022-10-13T22:46:44.009Z,34.60
2022-10-13T22:52:30.112Z,38.20
2022-10-13T22:58:09.339Z,40.20
2022-10-13T23:03:34.243Z,37.20
2022-10-13T23:09:02.441Z,33.40
2022-10-13T23:14:26.307Z,38.20
2022-10-13T23:19:50.281Z,40.00
2022-10-13T23:25:15.072Z,39.10
2022-10-13T23:30:38.888Z,38.10
2022-10-13T23:36:10.524Z,41.30
2022-10-13T23:41:56.834Z,40.30
2022-10-13T23:47:32.622Z,42.40
2022-10-13T23:53:55.412Z,41.50
2022-10-13T23:59:34.163Z,42.30
